createdAt,value
2018-09-12T00:02:01.905Z,58.06
2018-09-12T00:07:05.696Z,58.26
2018-09-12T00:12:09.299Z,59.33
2018-09-12T00:17:12.853Z,59.01
2018-09-12T00:27:54.481Z,60.96
2018-09-12T00:32:59.769Z,60.85
2018-09-12T00:38:03.344Z,62.12
2018-09-12T00:43:06.986Z,62.07
2018-09-12T00:48:10.738Z,62.14
2018-09-12T00:53:14.464Z,63.31
2018-09-12T00:58:17.993Z,63.05
2018-09-12T01:03:22.406Z,62.30
2018-09-12T01:08:26.010Z,61.68
2018-09-12T01:13:29.596Z,61.81
2018-09-12T01:18:33.207Z,61.51
2018-09-12T01:23:36.812Z,61.33
2018-09-12T01:28:40.381Z,61.12
2018-09-12T01:33:44.045Z,60.65
2018-09-12T01:38:47.685Z,61.42
2018-09-12T01:43:51.217Z,61.00
2018-09-12T01:48:54.862Z,60.33
2018-09-12T01:53:58.389Z,60.17
2018-09-12T01:59:01.942Z,60.17
2018-09-12T02:04:05.844Z,60.43
2018-09-12T02:09:11.927Z,60.18
2018-09-12T02:14:15.524Z,60.23
2018-09-12T02:19:19.229Z,61.10
2018-09-12T02:24:22.824Z,60.28
2018-09-12T02:29:26.559Z,61.35
2018-09-12T02:34:30.080Z,62.40
2018-09-12T02:39:33.757Z,62.27
2018-09-12T02:44:37.448Z,61.93
2018-09-12T02:49:40.984Z,63.08
2018-09-12T02:54:44.878Z,63.80
2018-09-12T02:59:48.456Z,63.53
2018-09-12T03:04:52.877Z,64.06
2018-09-12T03:09:56.439Z,64.09
2018-09-12T03:14:59.970Z,64.26
2018-09-12T03:20:03.691Z,64.34
2018-09-12T03:25:07.386Z,63.41
2018-09-12T03:30:12.276Z,64.53
2018-09-12T03:35:16.156Z,64.45
2018-09-12T03:40:24.117Z,63.97
2018-09-12T03:45:27.792Z,64.06
2018-09-12T03:50:31.341Z,64.89
2018-09-12T03:55:35.028Z,66.26
2018-09-12T04:00:38.696Z,66.50
2018-09-12T04:05:42.729Z,66.86
2018-09-12T04:10:46.454Z,68.42
2018-09-12T04:15:50.222Z,69.17
2018-09-12T04:20:53.933Z,69.40
2018-09-12T04:25:57.551Z,69.57
2018-09-12T04:31:01.270Z,70.31
2018-09-12T04:36:05.195Z,70.74
2018-09-12T04:41:08.796Z,72.08
2018-09-12T04:46:12.349Z,71.79
2018-09-12T04:51:15.938Z,71.33
2018-09-12T04:56:19.789Z,71.45
2018-09-12T05:01:23.342Z,70.95
2018-09-12T05:06:27.118Z,70.40
2018-09-12T05:11:30.684Z,70.60
2018-09-12T05:16:35.843Z,69.96
2018-09-12T05:21:39.609Z,70.25
2018-09-12T05:26:43.322Z,70.09
2018-09-12T05:31:47.138Z,69.81
2018-09-12T05:36:50.770Z,69.95
2018-09-12T05:41:54.275Z,70.08
2018-09-12T05:46:58.057Z,69.46
2018-09-12T05:52:01.602Z,68.58
2018-09-12T05:57:05.452Z,68.57
2018-09-12T06:02:08.962Z,69.15
2018-09-12T06:07:13.039Z,68.49
2018-09-12T06:12:16.474Z,68.35
2018-09-12T06:17:20.070Z,67.84
2018-09-12T06:22:23.628Z,68.26
2018-09-12T06:27:27.454Z,68.26
2018-09-12T06:32:31.132Z,68.15
2018-09-12T06:37:34.644Z,67.39
2018-09-12T06:42:38.231Z,68.00
2018-09-12T06:47:41.857Z,67.35
2018-09-12T06:52:45.474Z,66.43
2018-09-12T06:57:49.037Z,66.38
2018-09-12T07:02:52.824Z,66.75
2018-09-12T07:07:56.345Z,66.01
2018-09-12T07:12:59.965Z,66.39
2018-09-12T07:18:03.516Z,68.00
2018-09-12T07:23:07.534Z,68.79
2018-09-12T07:28:11.180Z,69.16
2018-09-12T07:33:14.817Z,68.27
2018-09-12T07:38:18.599Z,67.06
2018-09-12T07:43:22.093Z,66.71
2018-09-12T07:48:25.716Z,66.78
2018-09-12T07:53:36.252Z,65.65
2018-09-12T07:58:39.830Z,65.52
2018-09-12T08:03:43.490Z,65.85
2018-09-12T08:08:47.090Z,65.70
2018-09-12T08:13:50.785Z,64.69
2018-09-12T08:18:54.363Z,63.43
2018-09-12T08:23:58.433Z,63.02
2018-09-12T08:29:01.983Z,63.09
2018-09-12T08:34:05.616Z,64.06
2018-09-12T08:39:10.266Z,64.28
2018-09-12T08:44:13.832Z,63.76
2018-09-12T08:49:17.564Z,63.54
2018-09-12T08:54:21.164Z,63.52
2018-09-12T08:59:24.884Z,62.64
2018-09-12T09:04:28.598Z,61.69
2018-09-12T09:09:32.726Z,60.87
2018-09-12T09:14:36.346Z,59.79
2018-09-12T09:19:41.746Z,59.93
2018-09-12T09:24:45.594Z,59.84
2018-09-12T09:29:50.723Z,60.01
2018-09-12T09:34:54.494Z,59.77
2018-09-12T09:39:58.093Z,58.47
2018-09-12T09:45:03.352Z,58.27
2018-09-12T09:50:06.934Z,59.02
2018-09-12T09:55:10.551Z,58.63
2018-09-12T10:05:37.216Z,57.77
2018-09-12T10:10:40.780Z,58.38
2018-09-12T10:15:44.386Z,58.22
2018-09-12T10:20:48.005Z,57.83
2018-09-12T10:25:51.913Z,57.06
2018-09-12T10:30:55.659Z,57.23
2018-09-12T10:36:08.583Z,57.54
2018-09-12T10:41:12.158Z,58.00
2018-09-12T10:46:15.713Z,59.94
2018-09-12T10:51:19.285Z,59.64
2018-09-12T10:56:22.883Z,59.60
2018-09-12T11:01:26.509Z,59.13
2018-09-12T11:06:30.031Z,58.60
2018-09-12T11:11:33.608Z,57.69
2018-09-12T11:16:37.399Z,57.97
2018-09-12T11:21:43.922Z,59.41
2018-09-12T11:26:52.383Z,59.65
2018-09-12T11:31:59.810Z,60.65
2018-09-12T11:37:03.475Z,61.26
2018-09-12T11:42:07.134Z,61.43
2018-09-12T11:47:10.792Z,60.70
2018-09-12T11:52:14.395Z,60.66
2018-09-12T11:57:18.063Z,61.12
2018-09-12T12:02:21.795Z,60.36
2018-09-12T12:07:25.354Z,61.85
2018-09-12T12:12:28.881Z,59.42
2018-09-12T12:17:42.228Z,59.51
2018-09-12T12:22:45.854Z,59.04
2018-09-12T12:27:54.333Z,58.13
2018-09-12T12:32:59.932Z,58.14
2018-09-12T12:38:03.687Z,59.08
2018-09-12T12:43:07.178Z,58.84
2018-09-12T12:48:13.943Z,59.08
2018-09-12T12:53:20.761Z,59.51
2018-09-12T12:58:24.509Z,59.45
2018-09-12T13:03:28.116Z,60.26
2018-09-12T13:08:31.790Z,58.89
2018-09-12T13:13:35.486Z,56.45
2018-09-12T13:18:39.177Z,57.47
2018-09-12T13:23:42.756Z,59.96
2018-09-12T13:28:46.359Z,62.03
2018-09-12T13:33:49.964Z,62.36
2018-09-12T13:38:53.929Z,61.75
2018-09-12T13:43:57.469Z,60.67
2018-09-12T13:49:01.063Z,60.38
2018-09-12T13:54:04.677Z,59.14
2018-09-12T13:59:08.287Z,59.42
2018-09-12T14:04:11.892Z,59.15
2018-09-12T14:09:16.281Z,59.67
2018-09-12T14:14:20.031Z,58.41
2018-09-12T14:19:23.819Z,59.15
2018-09-12T14:24:27.660Z,60.87
2018-09-12T14:29:31.282Z,62.10
2018-09-12T14:34:35.134Z,61.40
2018-09-12T14:39:38.831Z,62.62
2018-09-12T14:44:42.479Z,63.35
2018-09-12T14:49:46.105Z,63.99
2018-09-12T14:54:49.727Z,65.17
2018-09-12T14:59:53.371Z,65.38
2018-09-12T15:04:57.062Z,66.55
2018-09-12T15:10:00.608Z,66.70
2018-09-12T15:15:04.143Z,68.55
2018-09-12T15:20:08.479Z,68.88
2018-09-12T15:25:14.158Z,68.51
2018-09-12T15:30:21.064Z,70.32
2018-09-12T15:35:24.736Z,71.96
2018-09-12T15:40:30.087Z,72.87
2018-09-12T15:45:33.864Z,73.19
2018-09-12T15:50:37.419Z,74.55
2018-09-12T15:55:40.968Z,75.04
2018-09-12T16:00:44.749Z,75.59
2018-09-12T16:05:48.317Z,75.18
2018-09-12T16:10:51.947Z,78.27
2018-09-12T16:15:55.543Z,76.92
2018-09-12T16:20:59.174Z,77.46
2018-09-12T16:26:02.814Z,77.84
2018-09-12T16:31:06.470Z,76.81
2018-09-12T16:36:10.069Z,75.87
2018-09-12T16:41:13.679Z,74.25
2018-09-12T16:46:17.352Z,76.72
2018-09-12T16:51:21.064Z,74.92
2018-09-12T16:56:30.833Z,76.39
2018-09-12T17:01:34.216Z,76.91
2018-09-12T17:06:39.172Z,75.30
2018-09-12T17:11:43.257Z,77.41
2018-09-12T17:16:46.868Z,76.59
2018-09-12T17:21:50.370Z,75.66
2018-09-12T17:26:54.796Z,78.81
2018-09-12T17:31:58.350Z,77.16
2018-09-12T17:37:02.209Z,80.84
2018-09-12T17:42:06.505Z,80.24
2018-09-12T17:47:10.174Z,83.51
2018-09-12T17:52:14.849Z,83.60
2018-09-12T17:57:18.686Z,82.81
2018-09-12T18:02:33.488Z,81.37
2018-09-12T18:07:37.860Z,80.46
2018-09-12T18:12:41.629Z,82.74
2018-09-12T18:17:45.155Z,83.27
2018-09-12T18:22:49.466Z,84.52
2018-09-12T18:27:53.089Z,85.09
2018-09-12T18:32:56.610Z,83.10
2018-09-12T18:38:00.925Z,81.94
2018-09-12T18:43:05.626Z,83.01
2018-09-12T18:48:09.267Z,82.48
2018-09-12T18:53:13.012Z,82.86
2018-09-12T18:58:16.627Z,85.47
2018-09-12T19:03:20.153Z,83.84
2018-09-12T19:08:23.722Z,83.22
2018-09-12T19:13:27.395Z,83.32
2018-09-12T19:18:30.948Z,84.26
2018-09-12T19:23:34.818Z,84.67
2018-09-12T19:28:38.462Z,86.32
2018-09-12T19:33:42.211Z,84.83
2018-09-12T19:38:45.822Z,84.03
2018-09-12T19:43:49.454Z,83.91
2018-09-12T19:48:53.072Z,85.55
2018-09-12T19:53:56.681Z,86.67
2018-09-12T19:59:00.264Z,84.78
2018-09-12T20:04:03.877Z,86.73
2018-09-12T20:09:09.317Z,85.18
2018-09-12T20:14:13.106Z,84.97
2018-09-12T20:19:18.437Z,84.96
2018-09-12T20:24:22.453Z,84.13
2018-09-12T20:29:26.396Z,82.14
2018-09-12T20:34:30.582Z,82.13
2018-09-12T20:39:34.345Z,80.76
2018-09-12T20:44:38.203Z,77.62
2018-09-12T20:49:42.161Z,77.48
2018-09-12T20:54:45.953Z,78.99
2018-09-12T20:59:50.010Z,78.81
2018-09-12T21:04:53.544Z,76.83
2018-09-12T21:09:57.130Z,76.39
2018-09-12T21:15:00.937Z,77.82
2018-09-12T21:20:04.771Z,77.35
2018-09-12T21:25:08.315Z,76.21
2018-09-12T21:30:18.038Z,75.52
2018-09-12T21:35:21.528Z,76.10
2018-09-12T21:40:25.023Z,74.83
2018-09-12T21:45:28.690Z,74.84
2018-09-12T21:50:32.400Z,73.60
2018-09-12T21:55:35.909Z,74.35
2018-09-12T22:00:39.520Z,73.89
2018-09-12T22:05:43.064Z,74.64
2018-09-12T22:10:46.646Z,73.47
2018-09-12T22:15:50.234Z,74.25
2018-09-12T22:20:53.762Z,74.04
2018-09-12T22:25:57.359Z,73.81
2018-09-12T22:31:01.020Z,72.79
2018-09-12T22:36:04.606Z,73.70
2018-09-12T22:41:08.140Z,73.75
2018-09-12T22:46:11.799Z,73.81
2018-09-12T22:51:15.288Z,75.25
2018-09-12T22:56:18.864Z,74.99
2018-09-12T23:01:23.972Z,75.93
2018-09-12T23:06:27.520Z,77.03
2018-09-12T23:11:31.322Z,78.52
2018-09-12T23:16:41.110Z,79.54
2018-09-12T23:21:44.683Z,81.76
2018-09-12T23:26:48.211Z,82.58
2018-09-12T23:31:51.728Z,86.77
2018-09-12T23:36:55.534Z,86.19
2018-09-12T23:41:59.280Z,86.68
2018-09-12T23:47:02.836Z,85.65
2018-09-12T23:52:06.615Z,87.98
2018-09-12T23:57:10.183Z,88.90
